sensor_id;sensor_type;location;lat;lon;timestamp;P1;durP1;ratioP1;P2;durP2;ratioP2
69835;SDS011;57132;51.972;4.450;2023-02-28T00:01:25;9.52;;;4.18;;
69835;SDS011;57132;51.972;4.450;2023-02-28T00:03:51;11.38;;;4.95;;
69835;SDS011;57132;51.972;4.450;2023-02-28T00:06:16;11.63;;;4.90;;
69835;SDS011;57132;51.972;4.450;2023-02-28T00:08:42;11.73;;;5.13;;
69835;SDS011;57132;51.972;4.450;2023-02-28T00:11:08;10.65;;;5.10;;
69835;SDS011;57132;51.972;4.450;2023-02-28T00:13:38;10.90;;;5.30;;
69835;SDS011;57132;51.972;4.450;2023-02-28T00:16:09;17.40;;;5.47;;
69835;SDS011;57132;51.972;4.450;2023-02-28T00:18:36;13.52;;;5.10;;
69835;SDS011;57132;51.972;4.450;2023-02-28T00:21:02;9.15;;;5.20;;
69835;SDS011;57132;51.972;4.450;2023-02-28T00:23:28;13.77;;;5.20;;
69835;SDS011;57132;51.972;4.450;2023-02-28T00:25:54;7.45;;;3.83;;
69835;SDS011;57132;51.972;4.450;2023-02-28T00:28:20;10.73;;;4.40;;
69835;SDS011;57132;51.972;4.450;2023-02-28T00:30:47;9.15;;;4.03;;
69835;SDS011;57132;51.972;4.450;2023-02-28T00:33:12;6.25;;;3.72;;
69835;SDS011;57132;51.972;4.450;2023-02-28T00:35:38;9.27;;;4.82;;
69835;SDS011;57132;51.972;4.450;2023-02-28T00:38:03;10.30;;;3.78;;
69835;SDS011;57132;51.972;4.450;2023-02-28T00:40:29;7.68;;;3.85;;
69835;SDS011;57132;51.972;4.450;2023-02-28T00:42:54;7.47;;;3.35;;
69835;SDS011;57132;51.972;4.450;2023-02-28T00:45:20;6.70;;;4.10;;
69835;SDS011;57132;51.972;4.450;2023-02-28T00:47:45;12.63;;;4.53;;
69835;SDS011;57132;51.972;4.450;2023-02-28T00:50:14;12.23;;;4.22;;
69835;SDS011;57132;51.972;4.450;2023-02-28T00:52:41;9.00;;;4.50;;
69835;SDS011;57132;51.972;4.450;2023-02-28T00:55:07;15.27;;;4.68;;
69835;SDS011;57132;51.972;4.450;2023-02-28T00:57:32;9.38;;;4.20;;
69835;SDS011;57132;51.972;4.450;2023-02-28T00:59:58;13.48;;;4.90;;
69835;SDS011;57132;51.972;4.450;2023-02-28T01:02:23;11.00;;;4.57;;
69835;SDS011;57132;51.972;4.450;2023-02-28T01:04:48;11.85;;;5.50;;
69835;SDS011;57132;51.972;4.450;2023-02-28T01:07:14;12.82;;;4.88;;
69835;SDS011;57132;51.972;4.450;2023-02-28T01:09:41;7.10;;;4.00;;
69835;SDS011;57132;51.972;4.450;2023-02-28T01:12:07;8.82;;;4.78;;
69835;SDS011;57132;51.972;4.450;2023-02-28T01:14:33;9.63;;;5.00;;
69835;SDS011;57132;51.972;4.450;2023-02-28T01:16:59;11.30;;;3.90;;
69835;SDS011;57132;51.972;4.450;2023-02-28T01:19:25;7.88;;;3.63;;
69835;SDS011;57132;51.972;4.450;2023-02-28T01:21:50;6.85;;;4.10;;
69835;SDS011;57132;51.972;4.450;2023-02-28T01:24:15;7.82;;;4.57;;
69835;SDS011;57132;51.972;4.450;2023-02-28T01:26:41;8.13;;;4.70;;
69835;SDS011;57132;51.972;4.450;2023-02-28T01:29:06;10.75;;;4.90;;
69835;SDS011;57132;51.972;4.450;2023-02-28T01:31:32;10.63;;;4.18;;
69835;SDS011;57132;51.972;4.450;2023-02-28T01:33:57;13.32;;;3.90;;
69835;SDS011;57132;51.972;4.450;2023-02-28T01:36:23;11.48;;;4.18;;
69835;SDS011;57132;51.972;4.450;2023-02-28T01:38:50;7.15;;;3.78;;
69835;SDS011;57132;51.972;4.450;2023-02-28T01:41:17;10.30;;;4.32;;
69835;SDS011;57132;51.972;4.450;2023-02-28T01:46:21;7.18;;;3.40;;
69835;SDS011;57132;51.972;4.450;2023-02-28T01:48:59;7.65;;;3.83;;
69835;SDS011;57132;51.972;4.450;2023-02-28T01:51:31;8.98;;;4.10;;
69835;SDS011;57132;51.972;4.450;2023-02-28T01:54:21;10.57;;;3.45;;
69835;SDS011;57132;51.972;4.450;2023-02-28T01:56:54;10.13;;;4.05;;
69835;SDS011;57132;51.972;4.450;2023-02-28T01:59:35;5.10;;;3.22;;
69835;SDS011;57132;51.972;4.450;2023-02-28T02:02:15;6.40;;;3.20;;
69835;SDS011;57132;51.972;4.450;2023-02-28T02:04:50;8.25;;;3.92;;
69835;SDS011;57132;51.972;4.450;2023-02-28T02:07:37;6.65;;;3.30;;
69835;SDS011;57132;51.972;4.450;2023-02-28T02:10:09;6.82;;;3.33;;
69835;SDS011;57132;51.972;4.450;2023-02-28T02:40:43;14.32;;;5.68;;
69835;SDS011;57132;51.972;4.450;2023-02-28T02:43:20;10.30;;;5.75;;
69835;SDS011;57132;51.972;4.450;2023-02-28T02:46:00;11.57;;;5.70;;
69835;SDS011;57132;51.972;4.450;2023-02-28T02:48:30;10.35;;;5.63;;
69835;SDS011;57132;51.972;4.450;2023-02-28T02:51:03;11.60;;;5.35;;
69835;SDS011;57132;51.972;4.450;2023-02-28T02:53:38;12.60;;;6.95;;
69835;SDS011;57132;51.972;4.450;2023-02-28T02:56:09;15.20;;;6.28;;
69835;SDS011;57132;51.972;4.450;2023-02-28T02:58:38;9.68;;;5.80;;
69835;SDS011;57132;51.972;4.450;2023-02-28T03:01:07;13.32;;;6.07;;
69835;SDS011;57132;51.972;4.450;2023-02-28T03:03:35;12.25;;;6.00;;
69835;SDS011;57132;51.972;4.450;2023-02-28T03:06:01;19.80;;;7.25;;
69835;SDS011;57132;51.972;4.450;2023-02-28T03:08:28;12.93;;;6.05;;
69835;SDS011;57132;51.972;4.450;2023-02-28T03:10:59;12.55;;;6.47;;
69835;SDS011;57132;51.972;4.450;2023-02-28T03:13:48;12.10;;;5.85;;
69835;SDS011;57132;51.972;4.450;2023-02-28T03:21:49;13.95;;;6.07;;
69835;SDS011;57132;51.972;4.450;2023-02-28T03:26:42;12.23;;;6.00;;
69835;SDS011;57132;51.972;4.450;2023-02-28T03:29:23;13.30;;;6.10;;
69835;SDS011;57132;51.972;4.450;2023-02-28T03:31:59;15.77;;;6.97;;
69835;SDS011;57132;51.972;4.450;2023-02-28T03:35:08;13.68;;;6.85;;
69835;SDS011;57132;51.972;4.450;2023-02-28T03:38:01;16.88;;;7.53;;
69835;SDS011;57132;51.972;4.450;2023-02-28T03:40:32;17.70;;;7.30;;
69835;SDS011;57132;51.972;4.450;2023-02-28T03:43:02;14.18;;;7.45;;
69835;SDS011;57132;51.972;4.450;2023-02-28T03:45:33;12.73;;;7.38;;
69835;SDS011;57132;51.972;4.450;2023-02-28T03:48:11;11.73;;;6.07;;
69835;SDS011;57132;51.972;4.450;2023-02-28T03:50:43;13.82;;;6.50;;
69835;SDS011;57132;51.972;4.450;2023-02-28T03:53:19;10.48;;;6.30;;
69835;SDS011;57132;51.972;4.450;2023-02-28T03:56:05;11.55;;;6.93;;
69835;SDS011;57132;51.972;4.450;2023-02-28T03:58:54;13.07;;;6.68;;
69835;SDS011;57132;51.972;4.450;2023-02-28T04:01:24;12.85;;;6.65;;
69835;SDS011;57132;51.972;4.450;2023-02-28T04:03:55;12.75;;;6.95;;
69835;SDS011;57132;51.972;4.450;2023-02-28T04:06:21;16.35;;;7.53;;
69835;SDS011;57132;51.972;4.450;2023-02-28T04:08:47;13.25;;;8.32;;
69835;SDS011;57132;51.972;4.450;2023-02-28T04:11:22;12.57;;;7.47;;
69835;SDS011;57132;51.972;4.450;2023-02-28T04:13:52;14.73;;;7.45;;
69835;SDS011;57132;51.972;4.450;2023-02-28T04:16:17;11.93;;;7.32;;
69835;SDS011;57132;51.972;4.450;2023-02-28T04:18:43;17.23;;;8.55;;
69835;SDS011;57132;51.972;4.450;2023-02-28T04:21:11;16.17;;;8.40;;
69835;SDS011;57132;51.972;4.450;2023-02-28T04:23:37;15.13;;;9.00;;
69835;SDS011;57132;51.972;4.450;2023-02-28T04:26:02;13.65;;;7.90;;
69835;SDS011;57132;51.972;4.450;2023-02-28T04:28:29;16.90;;;8.65;;
69835;SDS011;57132;51.972;4.450;2023-02-28T04:30:58;14.27;;;8.80;;
69835;SDS011;57132;51.972;4.450;2023-02-28T04:33:28;18.00;;;7.60;;
69835;SDS011;57132;51.972;4.450;2023-02-28T04:35:59;17.13;;;8.15;;
69835;SDS011;57132;51.972;4.450;2023-02-28T04:38:25;13.57;;;8.52;;
69835;SDS011;57132;51.972;4.450;2023-02-28T04:40:51;16.58;;;7.82;;
69835;SDS011;57132;51.972;4.450;2023-02-28T04:43:16;14.40;;;7.72;;
69835;SDS011;57132;51.972;4.450;2023-02-28T04:45:41;12.52;;;7.43;;
69835;SDS011;57132;51.972;4.450;2023-02-28T04:48:07;15.43;;;7.95;;
69835;SDS011;57132;51.972;4.450;2023-02-28T04:50:32;14.45;;;8.20;;
69835;SDS011;57132;51.972;4.450;2023-02-28T04:52:57;12.52;;;7.55;;
69835;SDS011;57132;51.972;4.450;2023-02-28T04:55:23;17.63;;;8.05;;
69835;SDS011;57132;51.972;4.450;2023-02-28T04:57:49;14.82;;;7.75;;
69835;SDS011;57132;51.972;4.450;2023-02-28T05:00:15;14.38;;;7.05;;
69835;SDS011;57132;51.972;4.450;2023-02-28T05:02:41;12.45;;;6.65;;
69835;SDS011;57132;51.972;4.450;2023-02-28T05:05:07;10.27;;;7.03;;
69835;SDS011;57132;51.972;4.450;2023-02-28T05:07:33;12.18;;;6.50;;
69835;SDS011;57132;51.972;4.450;2023-02-28T05:10:01;12.93;;;7.32;;
69835;SDS011;57132;51.972;4.450;2023-02-28T05:12:26;13.02;;;6.85;;
69835;SDS011;57132;51.972;4.450;2023-02-28T05:14:52;14.95;;;8.27;;
69835;SDS011;57132;51.972;4.450;2023-02-28T05:17:17;13.02;;;7.18;;
69835;SDS011;57132;51.972;4.450;2023-02-28T05:19:43;12.45;;;7.57;;
69835;SDS011;57132;51.972;4.450;2023-02-28T05:22:12;16.17;;;8.07;;
69835;SDS011;57132;51.972;4.450;2023-02-28T05:24:40;15.25;;;8.02;;
69835;SDS011;57132;51.972;4.450;2023-02-28T05:27:07;14.23;;;8.52;;
69835;SDS011;57132;51.972;4.450;2023-02-28T05:29:33;12.90;;;7.65;;
69835;SDS011;57132;51.972;4.450;2023-02-28T05:31:59;12.98;;;7.95;;
69835;SDS011;57132;51.972;4.450;2023-02-28T05:34:24;16.52;;;8.65;;
69835;SDS011;57132;51.972;4.450;2023-02-28T05:36:49;16.60;;;8.75;;
69835;SDS011;57132;51.972;4.450;2023-02-28T05:39:15;18.10;;;9.18;;
69835;SDS011;57132;51.972;4.450;2023-02-28T05:41:42;18.08;;;8.50;;
69835;SDS011;57132;51.972;4.450;2023-02-28T05:44:08;15.77;;;8.20;;
69835;SDS011;57132;51.972;4.450;2023-02-28T05:46:34;17.85;;;9.07;;
69835;SDS011;57132;51.972;4.450;2023-02-28T05:49:00;19.05;;;8.90;;
69835;SDS011;57132;51.972;4.450;2023-02-28T05:51:26;19.25;;;9.30;;
69835;SDS011;57132;51.972;4.450;2023-02-28T05:53:51;15.73;;;9.02;;
69835;SDS011;57132;51.972;4.450;2023-02-28T05:56:17;21.98;;;8.85;;
69835;SDS011;57132;51.972;4.450;2023-02-28T05:58:42;15.25;;;8.15;;
69835;SDS011;57132;51.972;4.450;2023-02-28T06:04:08;15.73;;;8.35;;
69835;SDS011;57132;51.972;4.450;2023-02-28T06:06:35;14.60;;;8.63;;
69835;SDS011;57132;51.972;4.450;2023-02-28T06:09:02;16.00;;;8.90;;
69835;SDS011;57132;51.972;4.450;2023-02-28T06:11:29;18.08;;;9.20;;
69835;SDS011;57132;51.972;4.450;2023-02-28T06:13:55;17.98;;;9.05;;
69835;SDS011;57132;51.972;4.450;2023-02-28T06:16:25;13.52;;;8.18;;
69835;SDS011;57132;51.972;4.450;2023-02-28T06:18:51;16.63;;;8.10;;
69835;SDS011;57132;51.972;4.450;2023-02-28T06:21:17;20.30;;;9.25;;
69835;SDS011;57132;51.972;4.450;2023-02-28T06:23:43;14.68;;;7.78;;
69835;SDS011;57132;51.972;4.450;2023-02-28T06:26:10;17.58;;;8.10;;
69835;SDS011;57132;51.972;4.450;2023-02-28T06:28:36;18.52;;;8.63;;
69835;SDS011;57132;51.972;4.450;2023-02-28T06:31:07;12.65;;;7.38;;
69835;SDS011;57132;51.972;4.450;2023-02-28T06:33:34;11.25;;;7.43;;
69835;SDS011;57132;51.972;4.450;2023-02-28T06:36:01;11.88;;;7.97;;
69835;SDS011;57132;51.972;4.450;2023-02-28T06:38:26;14.85;;;7.63;;
69835;SDS011;57132;51.972;4.450;2023-02-28T06:40:53;10.48;;;7.20;;
69835;SDS011;57132;51.972;4.450;2023-02-28T06:43:19;10.77;;;6.70;;
69835;SDS011;57132;51.972;4.450;2023-02-28T06:45:45;12.40;;;7.50;;
69835;SDS011;57132;51.972;4.450;2023-02-28T06:48:11;10.80;;;5.93;;
69835;SDS011;57132;51.972;4.450;2023-02-28T06:50:36;9.85;;;5.65;;
69835;SDS011;57132;51.972;4.450;2023-02-28T06:53:03;10.73;;;5.82;;
69835;SDS011;57132;51.972;4.450;2023-02-28T06:55:29;13.27;;;5.97;;
69835;SDS011;57132;51.972;4.450;2023-02-28T06:57:54;9.05;;;5.13;;
69835;SDS011;57132;51.972;4.450;2023-02-28T07:00:22;11.10;;;5.30;;
69835;SDS011;57132;51.972;4.450;2023-02-28T07:02:47;9.48;;;5.75;;
69835;SDS011;57132;51.972;4.450;2023-02-28T07:05:13;9.00;;;5.50;;
69835;SDS011;57132;51.972;4.450;2023-02-28T07:07:38;7.97;;;4.65;;
69835;SDS011;57132;51.972;4.450;2023-02-28T07:10:10;10.73;;;6.15;;
69835;SDS011;57132;51.972;4.450;2023-02-28T07:12:36;8.02;;;5.55;;
69835;SDS011;57132;51.972;4.450;2023-02-28T07:15:03;12.02;;;5.85;;
69835;SDS011;57132;51.972;4.450;2023-02-28T07:17:29;8.88;;;5.70;;
69835;SDS011;57132;51.972;4.450;2023-02-28T07:19:55;10.23;;;6.03;;
69835;SDS011;57132;51.972;4.450;2023-02-28T07:22:20;10.20;;;6.25;;
69835;SDS011;57132;51.972;4.450;2023-02-28T07:24:46;10.68;;;6.53;;
69835;SDS011;57132;51.972;4.450;2023-02-28T07:27:11;10.10;;;6.07;;
69835;SDS011;57132;51.972;4.450;2023-02-28T07:29:36;14.32;;;6.57;;
69835;SDS011;57132;51.972;4.450;2023-02-28T07:32:03;13.32;;;6.68;;
69835;SDS011;57132;51.972;4.450;2023-02-28T07:34:29;10.38;;;6.90;;
69835;SDS011;57132;51.972;4.450;2023-02-28T07:36:54;15.40;;;7.32;;
69835;SDS011;57132;51.972;4.450;2023-02-28T07:39:20;15.95;;;7.45;;
69835;SDS011;57132;51.972;4.450;2023-02-28T07:41:47;12.93;;;6.95;;
69835;SDS011;57132;51.972;4.450;2023-02-28T07:44:13;14.07;;;8.00;;
69835;SDS011;57132;51.972;4.450;2023-02-28T07:46:38;15.80;;;7.97;;
69835;SDS011;57132;51.972;4.450;2023-02-28T07:49:04;12.98;;;7.45;;
69835;SDS011;57132;51.972;4.450;2023-02-28T07:51:30;15.45;;;7.90;;
69835;SDS011;57132;51.972;4.450;2023-02-28T07:53:56;12.13;;;8.07;;
69835;SDS011;57132;51.972;4.450;2023-02-28T07:56:22;12.35;;;6.78;;
69835;SDS011;57132;51.972;4.450;2023-02-28T07:58:47;16.23;;;8.65;;
69835;SDS011;57132;51.972;4.450;2023-02-28T08:01:13;18.73;;;9.40;;
69835;SDS011;57132;51.972;4.450;2023-02-28T08:03:39;17.02;;;11.10;;
69835;SDS011;57132;51.972;4.450;2023-02-28T08:06:06;15.48;;;9.80;;
69835;SDS011;57132;51.972;4.450;2023-02-28T08:08:33;15.05;;;9.50;;
69835;SDS011;57132;51.972;4.450;2023-02-28T08:10:59;16.98;;;9.55;;
69835;SDS011;57132;51.972;4.450;2023-02-28T08:13:26;16.98;;;9.68;;
69835;SDS011;57132;51.972;4.450;2023-02-28T08:15:53;15.82;;;10.27;;
69835;SDS011;57132;51.972;4.450;2023-02-28T08:18:19;16.00;;;8.63;;
69835;SDS011;57132;51.972;4.450;2023-02-28T08:20:46;15.27;;;9.00;;
69835;SDS011;57132;51.972;4.450;2023-02-28T08:23:11;17.35;;;8.60;;
69835;SDS011;57132;51.972;4.450;2023-02-28T08:25:37;17.60;;;9.65;;
69835;SDS011;57132;51.972;4.450;2023-02-28T08:28:02;19.77;;;9.73;;
69835;SDS011;57132;51.972;4.450;2023-02-28T08:30:28;16.63;;;9.02;;
69835;SDS011;57132;51.972;4.450;2023-02-28T08:32:53;19.98;;;10.88;;
69835;SDS011;57132;51.972;4.450;2023-02-28T08:35:20;19.30;;;10.13;;
69835;SDS011;57132;51.972;4.450;2023-02-28T08:37:47;20.25;;;10.20;;
69835;SDS011;57132;51.972;4.450;2023-02-28T08:40:13;17.63;;;11.23;;
69835;SDS011;57132;51.972;4.450;2023-02-28T08:42:43;19.73;;;11.18;;
69835;SDS011;57132;51.972;4.450;2023-02-28T08:45:12;14.40;;;9.57;;
69835;SDS011;57132;51.972;4.450;2023-02-28T08:47:39;20.75;;;11.60;;
69835;SDS011;57132;51.972;4.450;2023-02-28T08:50:04;16.92;;;10.10;;
69835;SDS011;57132;51.972;4.450;2023-02-28T08:52:31;17.52;;;9.25;;
69835;SDS011;57132;51.972;4.450;2023-02-28T08:54:56;20.85;;;10.20;;
69835;SDS011;57132;51.972;4.450;2023-02-28T08:57:21;16.63;;;10.23;;
69835;SDS011;57132;51.972;4.450;2023-02-28T08:59:47;15.70;;;10.15;;
69835;SDS011;57132;51.972;4.450;2023-02-28T09:02:13;17.38;;;9.77;;
69835;SDS011;57132;51.972;4.450;2023-02-28T09:04:39;18.98;;;9.68;;
69835;SDS011;57132;51.972;4.450;2023-02-28T09:07:05;17.27;;;9.27;;
69835;SDS011;57132;51.972;4.450;2023-02-28T09:09:30;15.35;;;10.02;;
69835;SDS011;57132;51.972;4.450;2023-02-28T09:11:58;15.27;;;9.77;;
69835;SDS011;57132;51.972;4.450;2023-02-28T09:14:23;18.90;;;10.50;;
69835;SDS011;57132;51.972;4.450;2023-02-28T09:16:49;16.58;;;10.27;;
69835;SDS011;57132;51.972;4.450;2023-02-28T09:19:14;16.45;;;10.02;;
69835;SDS011;57132;51.972;4.450;2023-02-28T09:21:40;16.73;;;9.73;;
69835;SDS011;57132;51.972;4.450;2023-02-28T09:24:06;15.43;;;9.73;;
69835;SDS011;57132;51.972;4.450;2023-02-28T09:26:32;15.27;;;9.43;;
69835;SDS011;57132;51.972;4.450;2023-02-28T09:28:57;17.58;;;9.50;;
69835;SDS011;57132;51.972;4.450;2023-02-28T09:31:25;18.23;;;9.60;;
69835;SDS011;57132;51.972;4.450;2023-02-28T09:33:54;21.42;;;9.95;;
69835;SDS011;57132;51.972;4.450;2023-02-28T09:36:21;20.42;;;10.43;;
69835;SDS011;57132;51.972;4.450;2023-02-28T09:38:48;17.35;;;10.15;;
69835;SDS011;57132;51.972;4.450;2023-02-28T09:41:17;16.50;;;10.45;;
69835;SDS011;57132;51.972;4.450;2023-02-28T09:43:53;14.10;;;9.80;;
69835;SDS011;57132;51.972;4.450;2023-02-28T09:46:32;13.25;;;9.75;;
69835;SDS011;57132;51.972;4.450;2023-02-28T09:48:59;18.50;;;9.20;;
69835;SDS011;57132;51.972;4.450;2023-02-28T09:51:46;13.77;;;9.98;;
69835;SDS011;57132;51.972;4.450;2023-02-28T09:54:34;15.80;;;9.23;;
69835;SDS011;57132;51.972;4.450;2023-02-28T10:10:24;10.38;;;6.32;;
69835;SDS011;57132;51.972;4.450;2023-02-28T10:12:55;9.73;;;6.38;;
69835;SDS011;57132;51.972;4.450;2023-02-28T10:15:24;9.13;;;6.13;;
69835;SDS011;57132;51.972;4.450;2023-02-28T10:18:12;10.40;;;6.28;;
69835;SDS011;57132;51.972;4.450;2023-02-28T10:20:44;9.15;;;6.50;;
69835;SDS011;57132;51.972;4.450;2023-02-28T10:23:15;8.82;;;6.35;;
69835;SDS011;57132;51.972;4.450;2023-02-28T10:25:46;8.60;;;6.05;;
69835;SDS011;57132;51.972;4.450;2023-02-28T10:28:17;8.95;;;5.57;;
69835;SDS011;57132;51.972;4.450;2023-02-28T10:30:47;9.00;;;5.55;;
69835;SDS011;57132;51.972;4.450;2023-02-28T10:33:31;11.05;;;5.10;;
69835;SDS011;57132;51.972;4.450;2023-02-28T10:38:31;6.28;;;4.40;;
69835;SDS011;57132;51.972;4.450;2023-02-28T10:43:32;5.88;;;4.65;;
69835;SDS011;57132;51.972;4.450;2023-02-28T10:48:30;7.50;;;4.40;;
69835;SDS011;57132;51.972;4.450;2023-02-28T10:50:58;7.07;;;4.43;;
69835;SDS011;57132;51.972;4.450;2023-02-28T10:55:56;8.02;;;5.53;;
69835;SDS011;57132;51.972;4.450;2023-02-28T10:58:25;8.45;;;4.47;;
69835;SDS011;57132;51.972;4.450;2023-02-28T11:00:52;6.00;;;4.68;;
69835;SDS011;57132;51.972;4.450;2023-02-28T11:03:25;7.15;;;4.53;;
69835;SDS011;57132;51.972;4.450;2023-02-28T11:05:58;5.75;;;3.92;;
69835;SDS011;57132;51.972;4.450;2023-02-28T11:08:29;5.50;;;4.10;;
69835;SDS011;57132;51.972;4.450;2023-02-28T11:10:56;4.28;;;3.63;;
69835;SDS011;57132;51.972;4.450;2023-02-28T11:13:30;4.93;;;3.70;;
69835;SDS011;57132;51.972;4.450;2023-02-28T11:16:00;6.03;;;3.83;;
69835;SDS011;57132;51.972;4.450;2023-02-28T11:18:48;7.07;;;3.53;;
69835;SDS011;57132;51.972;4.450;2023-02-28T11:21:18;5.57;;;3.40;;
69835;SDS011;57132;51.972;4.450;2023-02-28T11:23:47;5.25;;;3.33;;
69835;SDS011;57132;51.972;4.450;2023-02-28T11:26:15;4.43;;;3.13;;
69835;SDS011;57132;51.972;4.450;2023-02-28T11:32:05;4.53;;;3.25;;
69835;SDS011;57132;51.972;4.450;2023-02-28T11:34:41;4.60;;;2.80;;
69835;SDS011;57132;51.972;4.450;2023-02-28T11:37:12;4.03;;;2.50;;
69835;SDS011;57132;51.972;4.450;2023-02-28T11:39:40;2.97;;;2.40;;
69835;SDS011;57132;51.972;4.450;2023-02-28T11:44:55;3.80;;;2.90;;
69835;SDS011;57132;51.972;4.450;2023-02-28T11:55:27;5.68;;;3.30;;
69835;SDS011;57132;51.972;4.450;2023-02-28T12:14:14;4.35;;;2.88;;
69835;SDS011;57132;51.972;4.450;2023-02-28T12:16:59;5.28;;;3.30;;
69835;SDS011;57132;51.972;4.450;2023-02-28T12:25:02;4.25;;;2.83;;
69835;SDS011;57132;51.972;4.450;2023-02-28T12:27:54;5.55;;;3.05;;
69835;SDS011;57132;51.972;4.450;2023-02-28T12:30:30;6.38;;;3.38;;
69835;SDS011;57132;51.972;4.450;2023-02-28T12:33:06;5.70;;;3.00;;
69835;SDS011;57132;51.972;4.450;2023-02-28T12:35:36;3.47;;;2.90;;
69835;SDS011;57132;51.972;4.450;2023-02-28T12:38:10;6.07;;;3.63;;
69835;SDS011;57132;51.972;4.450;2023-02-28T12:43:09;6.00;;;3.35;;
69835;SDS011;57132;51.972;4.450;2023-02-28T12:45:42;3.83;;;2.85;;
69835;SDS011;57132;51.972;4.450;2023-02-28T12:48:16;3.13;;;2.53;;
69835;SDS011;57132;51.972;4.450;2023-02-28T12:50:50;4.53;;;3.65;;
69835;SDS011;57132;51.972;4.450;2023-02-28T12:58:30;8.05;;;3.15;;
69835;SDS011;57132;51.972;4.450;2023-02-28T13:09:39;4.05;;;3.35;;
69835;SDS011;57132;51.972;4.450;2023-02-28T13:12:14;4.95;;;3.10;;
69835;SDS011;57132;51.972;4.450;2023-02-28T13:14:41;5.18;;;3.38;;
69835;SDS011;57132;51.972;4.450;2023-02-28T13:19:34;7.07;;;3.25;;
69835;SDS011;57132;51.972;4.450;2023-02-28T13:22:03;4.70;;;2.95;;
69835;SDS011;57132;51.972;4.450;2023-02-28T13:24:43;5.53;;;2.97;;
69835;SDS011;57132;51.972;4.450;2023-02-28T13:29:41;5.38;;;3.10;;
69835;SDS011;57132;51.972;4.450;2023-02-28T13:34:38;5.43;;;2.80;;
69835;SDS011;57132;51.972;4.450;2023-02-28T13:39:48;3.55;;;2.72;;
69835;SDS011;57132;51.972;4.450;2023-02-28T13:47:39;5.53;;;3.47;;
69835;SDS011;57132;51.972;4.450;2023-02-28T13:58:51;3.53;;;2.90;;
69835;SDS011;57132;51.972;4.450;2023-02-28T14:08:59;6.80;;;3.20;;
69835;SDS011;57132;51.972;4.450;2023-02-28T14:11:37;4.28;;;2.80;;
69835;SDS011;57132;51.972;4.450;2023-02-28T14:14:04;3.85;;;2.97;;
69835;SDS011;57132;51.972;4.450;2023-02-28T14:16:41;4.95;;;3.65;;
69835;SDS011;57132;51.972;4.450;2023-02-28T14:19:11;5.40;;;3.13;;
69835;SDS011;57132;51.972;4.450;2023-02-28T14:21:58;4.25;;;3.00;;
69835;SDS011;57132;51.972;4.450;2023-02-28T14:27:37;4.97;;;3.40;;
69835;SDS011;57132;51.972;4.450;2023-02-28T14:30:14;5.82;;;3.28;;
69835;SDS011;57132;51.972;4.450;2023-02-28T14:32:45;5.90;;;3.10;;
69835;SDS011;57132;51.972;4.450;2023-02-28T14:35:29;5.70;;;3.20;;
69835;SDS011;57132;51.972;4.450;2023-02-28T14:38:13;6.03;;;3.50;;
69835;SDS011;57132;51.972;4.450;2023-02-28T14:40:43;4.13;;;2.75;;
69835;SDS011;57132;51.972;4.450;2023-02-28T14:43:19;4.13;;;3.28;;
69835;SDS011;57132;51.972;4.450;2023-02-28T14:45:50;5.25;;;3.25;;
69835;SDS011;57132;51.972;4.450;2023-02-28T14:48:18;5.93;;;3.15;;
69835;SDS011;57132;51.972;4.450;2023-02-28T14:50:52;5.15;;;3.45;;
69835;SDS011;57132;51.972;4.450;2023-02-28T14:53:20;3.58;;;3.28;;
69835;SDS011;57132;51.972;4.450;2023-02-28T14:55:47;4.45;;;3.13;;
69835;SDS011;57132;51.972;4.450;2023-02-28T14:58:33;5.40;;;2.90;;
69835;SDS011;57132;51.972;4.450;2023-02-28T15:01:00;3.35;;;2.90;;
69835;SDS011;57132;51.972;4.450;2023-02-28T15:05:58;8.35;;;3.15;;
69835;SDS011;57132;51.972;4.450;2023-02-28T15:08:27;4.22;;;2.95;;
69835;SDS011;57132;51.972;4.450;2023-02-28T15:11:04;4.25;;;3.00;;
69835;SDS011;57132;51.972;4.450;2023-02-28T15:16:17;4.00;;;2.75;;
69835;SDS011;57132;51.972;4.450;2023-02-28T15:21:13;3.78;;;2.83;;
69835;SDS011;57132;51.972;4.450;2023-02-28T15:23:42;5.05;;;3.15;;
69835;SDS011;57132;51.972;4.450;2023-02-28T15:26:18;3.60;;;2.80;;
69835;SDS011;57132;51.972;4.450;2023-02-28T15:28:48;3.58;;;2.63;;
69835;SDS011;57132;51.972;4.450;2023-02-28T15:31:23;12.93;;;6.68;;
69835;SDS011;57132;51.972;4.450;2023-02-28T15:34:02;6.22;;;4.13;;
69835;SDS011;57132;51.972;4.450;2023-02-28T15:36:31;4.20;;;2.80;;
69835;SDS011;57132;51.972;4.450;2023-02-28T15:38:58;4.10;;;2.63;;
69835;SDS011;57132;51.972;4.450;2023-02-28T15:41:35;4.85;;;3.00;;
69835;SDS011;57132;51.972;4.450;2023-02-28T15:47:06;5.13;;;3.20;;
69835;SDS011;57132;51.972;4.450;2023-02-28T15:50:03;4.10;;;2.70;;
69835;SDS011;57132;51.972;4.450;2023-02-28T15:52:38;8.07;;;2.92;;
69835;SDS011;57132;51.972;4.450;2023-02-28T15:55:16;4.13;;;2.67;;
69835;SDS011;57132;51.972;4.450;2023-02-28T15:57:44;4.53;;;3.30;;
69835;SDS011;57132;51.972;4.450;2023-02-28T16:00:13;4.85;;;3.50;;
69835;SDS011;57132;51.972;4.450;2023-02-28T16:02:40;5.53;;;3.53;;
69835;SDS011;57132;51.972;4.450;2023-02-28T16:07:43;4.05;;;3.50;;
69835;SDS011;57132;51.972;4.450;2023-02-28T16:10:10;5.95;;;3.65;;
69835;SDS011;57132;51.972;4.450;2023-02-28T16:12:37;5.25;;;3.40;;
69835;SDS011;57132;51.972;4.450;2023-02-28T16:15:08;3.47;;;2.80;;
69835;SDS011;57132;51.972;4.450;2023-02-28T16:17:42;7.35;;;3.60;;
69835;SDS011;57132;51.972;4.450;2023-02-28T16:22:47;6.63;;;3.47;;
69835;SDS011;57132;51.972;4.450;2023-02-28T16:25:15;4.03;;;3.40;;
69835;SDS011;57132;51.972;4.450;2023-02-28T16:27:42;4.68;;;4.00;;
69835;SDS011;57132;51.972;4.450;2023-02-28T16:30:15;8.93;;;4.30;;
69835;SDS011;57132;51.972;4.450;2023-02-28T16:32:45;4.57;;;4.05;;
69835;SDS011;57132;51.972;4.450;2023-02-28T16:35:10;5.32;;;4.00;;
69835;SDS011;57132;51.972;4.450;2023-02-28T16:37:36;6.43;;;4.95;;
69835;SDS011;57132;51.972;4.450;2023-02-28T16:40:02;5.85;;;4.30;;
69835;SDS011;57132;51.972;4.450;2023-02-28T16:42:28;7.22;;;4.30;;
69835;SDS011;57132;51.972;4.450;2023-02-28T16:44:54;5.95;;;4.25;;
69835;SDS011;57132;51.972;4.450;2023-02-28T16:47:20;4.93;;;4.07;;
69835;SDS011;57132;51.972;4.450;2023-02-28T16:49:51;7.50;;;5.00;;
69835;SDS011;57132;51.972;4.450;2023-02-28T16:52:17;8.15;;;4.75;;
69835;SDS011;57132;51.972;4.450;2023-02-28T16:54:43;7.75;;;4.47;;
69835;SDS011;57132;51.972;4.450;2023-02-28T16:59:56;9.88;;;5.28;;
69835;SDS011;57132;51.972;4.450;2023-02-28T17:02:21;7.68;;;4.88;;
69835;SDS011;57132;51.972;4.450;2023-02-28T17:04:46;12.85;;;6.07;;
69835;SDS011;57132;51.972;4.450;2023-02-28T17:07:12;20.88;;;9.68;;
69835;SDS011;57132;51.972;4.450;2023-02-28T17:09:41;18.48;;;8.88;;
69835;SDS011;57132;51.972;4.450;2023-02-28T17:12:08;7.60;;;5.00;;
69835;SDS011;57132;51.972;4.450;2023-02-28T17:14:34;8.85;;;5.38;;
69835;SDS011;57132;51.972;4.450;2023-02-28T17:17:00;7.03;;;4.88;;
69835;SDS011;57132;51.972;4.450;2023-02-28T17:19:26;6.85;;;4.50;;
69835;SDS011;57132;51.972;4.450;2023-02-28T17:21:54;7.75;;;4.60;;
69835;SDS011;57132;51.972;4.450;2023-02-28T17:24:19;8.25;;;5.18;;
69835;SDS011;57132;51.972;4.450;2023-02-28T17:26:45;7.53;;;5.50;;
69835;SDS011;57132;51.972;4.450;2023-02-28T17:29:19;7.93;;;5.85;;
69835;SDS011;57132;51.972;4.450;2023-02-28T17:31:46;7.43;;;5.80;;
69835;SDS011;57132;51.972;4.450;2023-02-28T17:34:12;11.30;;;5.70;;
69835;SDS011;57132;51.972;4.450;2023-02-28T17:36:43;9.13;;;5.93;;
69835;SDS011;57132;51.972;4.450;2023-02-28T17:39:11;12.55;;;6.30;;
69835;SDS011;57132;51.972;4.450;2023-02-28T17:41:40;9.20;;;6.82;;
69835;SDS011;57132;51.972;4.450;2023-02-28T17:44:08;9.98;;;6.80;;